Time;durP1;ratioP1;P1;durP2;ratioP2;P2;SDS_P1;SDS_P2;PMS_P1;PMS_P2;Temp;Humidity;BMP_temperature;BMP_pressure;BME280_temperature;BME280_humidity;BME280_pressure;Samples;Min_cycle;Max_cycle;Signal;HPM_P1;HPM_P2
2021/12/30 00:00:40;;;;;;;70.25;35.38;;;;;;;-4.02;100.00;99609.47;1640875;87;21133;-66
2021/12/30 00:03:08;;;;;;;64.30;33.92;;;;;;;-4.05;100.00;99606.67;1682776;85;21050;-66
2021/12/30 00:05:34;;;;;;;72.17;34.10;;;;;;;-4.04;100.00;99608.84;1674704;85;21109;-66
2021/12/30 00:08:03;;;;;;;60.83;31.95;;;;;;;-4.04;100.00;99612.83;1655365;87;21058;-66
2021/12/30 00:10:29;;;;;;;70.60;35.13;;;;;;;-4.03;100.00;99615.28;1668878;85;21067;-66
2021/12/30 00:12:57;;;;;;;69.30;34.67;;;;;;;-4.04;100.00;99612.30;1669484;85;21122;-65
2021/12/30 00:15:24;;;;;;;72.65;33.60;;;;;;;-4.05;100.00;99611.99;1677339;85;21066;-65
2021/12/30 00:17:50;;;;;;;;;;;;;;;-4.03;100.00;99617.11;1685245;85;21126;-66
2021/12/30 00:20:17;;;;;;;61.75;32.08;;;;;;;-4.07;100.00;99616.65;1681920;85;20147;-65
2021/12/30 00:22:44;;;;;;;60.98;32.48;;;;;;;-4.08;100.00;99622.16;1679615;85;21094;-65
2021/12/30 00:25:12;;;;;;;63.50;32.65;;;;;;;-4.10;100.00;99610.87;1646832;85;21061;-66
2021/12/30 00:27:39;;;;;;;59.88;30.88;;;;;;;-4.08;100.00;99620.34;1645164;85;21559;-66
2021/12/30 00:30:08;;;;;;;71.47;34.15;;;;;;;-4.09;100.00;99614.69;1683078;85;21011;-65
2021/12/30 00:32:36;;;;;;;63.80;34.10;;;;;;;-4.12;100.00;99616.88;1673209;84;21136;-65
2021/12/30 00:35:03;;;;;;;67.30;34.03;;;;;;;-4.22;100.00;99614.48;1675945;85;21604;-65
2021/12/30 00:37:30;;;;;;;61.02;32.83;;;;;;;-4.26;100.00;99619.00;1675163;85;21097;-66
2021/12/30 00:39:57;;;;;;;63.70;32.28;;;;;;;-4.25;100.00;99614.02;1680568;85;20979;-66
2021/12/30 00:42:23;;;;;;;60.67;31.93;;;;;;;-4.22;100.00;99606.52;1668969;85;21055;-65
2021/12/30 00:44:49;;;;;;;69.25;34.25;;;;;;;-4.19;100.00;99614.63;1665004;85;21173;-66
2021/12/30 00:47:16;;;;;;;63.78;33.02;;;;;;;-4.20;100.00;99596.52;1655241;84;21548;-65
2021/12/30 00:49:42;;;;;;;61.40;32.15;;;;;;;-4.15;100.00;99610.10;1671633;85;21003;-66
2021/12/30 00:52:08;;;;;;;61.70;30.90;;;;;;;-4.11;100.00;99607.91;1659784;85;21067;-65
2021/12/30 00:54:35;;;;;;;;;;;;;;;-4.12;100.00;99603.09;1680083;85;21118;-65
2021/12/30 00:57:02;;;;;;;57.63;30.00;;;;;;;-4.10;100.00;99604.22;1676943;84;20118;-65
2021/12/30 00:59:29;;;;;;;57.80;30.88;;;;;;;-4.11;100.00;99607.91;1656604;85;21051;-66
2021/12/30 01:01:56;;;;;;;;;;;;;;;-4.10;100.00;99608.20;1681841;85;21079;-65
2021/12/30 01:04:22;;;;;;;56.10;28.98;;;;;;;-4.08;100.00;99613.69;1672189;85;20185;-66
2021/12/30 01:06:51;;;;;;;;;;;;;;;-4.07;100.00;99610.50;1676773;85;21556;-65
2021/12/30 01:09:17;;;;;;;55.78;29.02;;;;;;;-4.06;100.00;99609.50;1673697;84;20177;-66
2021/12/30 01:11:45;;;;;;;53.92;28.83;;;;;;;-4.07;100.00;99609.17;1664311;85;21601;-65
2021/12/30 01:14:21;;;;;;;55.92;29.32;;;;;;;-4.08;100.00;99603.55;1662979;85;21097;-65
2021/12/30 01:16:49;;;;;;;57.60;27.48;;;;;;;-4.08;100.00;99608.38;1638146;87;21085;-64
2021/12/30 01:21:41;;;;;;;56.08;28.25;;;;;;;-4.08;100.00;99603.05;1680532;85;22022;-65
2021/12/30 01:24:08;;;;;;;;;;;;;;;-4.08;100.00;99598.23;1682856;85;20972;-66
2021/12/30 01:26:34;;;;;;;57.27;27.20;;;;;;;-4.10;100.00;99607.70;1680362;84;20108;-65
2021/12/30 01:29:01;;;;;;;54.77;27.30;;;;;;;-4.13;100.00;99608.58;1680289;85;21015;-65
2021/12/30 01:31:27;;;;;;;55.50;27.73;;;;;;;-4.15;100.00;99606.12;1641562;85;21118;-66
2021/12/30 01:33:54;;;;;;;54.33;27.87;;;;;;;-4.12;100.00;99607.58;1621558;88;21581;-65
2021/12/30 01:36:21;;;;;;;54.77;28.02;;;;;;;-4.13;100.00;99601.92;1674734;85;21070;-65
2021/12/30 01:38:49;;;;;;;53.00;27.80;;;;;;;-4.12;100.00;99607.08;1678164;85;21078;-65
2021/12/30 01:41:15;;;;;;;61.08;29.07;;;;;;;-4.12;100.00;99600.93;1660275;85;21090;-65
2021/12/30 01:43:42;;;;;;;54.85;28.42;;;;;;;-4.15;100.00;99599.97;1676886;85;21580;-65
2021/12/30 01:46:09;;;;;;;59.73;29.95;;;;;;;-4.17;100.00;99601.47;1678255;85;21094;-65
2021/12/30 01:48:36;;;;;;;59.45;29.25;;;;;;;-4.16;100.00;99597.81;1678280;85;21055;-66
2021/12/30 01:51:03;;;;;;;53.70;27.80;;;;;;;-4.17;100.00;99598.80;1677566;85;21145;-65
2021/12/30 01:53:31;;;;;;;59.23;28.17;;;;;;;-4.18;100.00;99607.78;1675449;85;21066;-65
2021/12/30 01:55:58;;;;;;;55.38;28.12;;;;;;;-4.21;100.00;99604.66;1678351;84;21067;-65
2021/12/30 01:58:24;;;;;;;54.95;27.62;;;;;;;-4.22;100.00;99609.67;1681618;84;21047;-66
2021/12/30 02:00:52;;;;;;;53.80;29.20;;;;;;;-4.23;100.00;99610.67;1675823;85;21179;-65
2021/12/30 02:03:19;;;;;;;48.50;25.97;;;;;;;-4.22;100.00;99622.47;1678201;85;21050;-66
2021/12/30 02:05:47;;;;;;;54.60;27.90;;;;;;;-4.22;100.00;99621.63;1678018;84;21027;-65
2021/12/30 02:08:17;;;;;;;56.50;28.50;;;;;;;-4.22;100.00;99628.28;1676914;85;21616;-66
2021/12/30 02:10:45;;;;;;;54.88;29.80;;;;;;;-4.23;100.00;99617.31;1667609;86;21014;-65
2021/12/30 02:13:15;;;;;;;57.27;30.30;;;;;;;-4.22;100.00;99628.28;1667533;86;21002;-65
2021/12/30 02:15:41;;;;;;;56.02;29.23;;;;;;;-4.25;100.00;99629.44;1673388;85;21042;-65
2021/12/30 02:18:09;;;;;;;57.95;29.82;;;;;;;-4.24;100.00;99626.28;1677312;85;21061;-66
2021/12/30 02:20:50;;;;;;;60.20;29.85;;;;;;;-4.26;100.00;99638.94;1678364;85;21098;-65
2021/12/30 02:23:23;;;;;;;52.60;28.10;;;;;;;-4.23;100.00;99634.59;1674839;85;21624;-66
2021/12/30 02:25:53;;;;;;;58.35;30.40;;;;;;;-4.23;100.00;99635.42;1652196;85;21061;-65
2021/12/30 02:28:25;;;;;;;57.85;27.77;;;;;;;-4.20;100.00;99632.90;1671379;85;20971;-65
2021/12/30 02:30:56;;;;;;;61.70;29.65;;;;;;;-4.21;100.00;99636.05;1678237;85;21091;-66
2021/12/30 02:33:24;;;;;;;58.95;29.42;;;;;;;-4.20;100.00;99635.06;1679515;85;21091;-65
2021/12/30 02:35:53;;;;;;;53.17;27.67;;;;;;;-4.19;100.00;99630.07;1600185;87;21048;-65
2021/12/30 02:38:19;;;;;;;57.67;28.73;;;;;;;-4.19;100.00;99638.05;1652490;86;21453;-65
2021/12/30 02:40:50;;;;;;;62.43;30.12;;;;;;;-4.20;100.00;99631.56;1633390;88;21621;-66
2021/12/30 02:43:23;;;;;;;54.15;27.35;;;;;;;-4.20;100.00;99638.22;1633673;88;21059;-65
2021/12/30 02:45:49;;;;;;;55.63;29.10;;;;;;;-4.19;100.00;99635.89;1630625;88;21019;-65
2021/12/30 02:48:27;;;;;;;56.25;29.10;;;;;;;-4.20;100.00;99632.90;1621665;87;21140;-65
2021/12/30 02:51:40;;;;;;;59.10;30.08;;;;;;;-4.16;100.00;99637.69;1793161;79;22778;-65
2021/12/30 02:54:08;;;;;;;56.90;28.92;;;;;;;-4.24;100.00;99644.89;1735869;82;21532;-65
2021/12/30 02:56:35;;;;;;;56.42;29.75;;;;;;;-4.23;100.00;99642.06;1727909;82;21611;-65
2021/12/30 02:59:03;;;;;;;55.00;28.40;;;;;;;-4.21;100.00;99651.17;1723928;82;21034;-65
2021/12/30 03:01:31;;;;;;;61.83;28.95;;;;;;;-4.21;100.00;99655.98;1723145;83;21043;-65
2021/12/30 03:04:00;;;;;;;53.25;28.32;;;;;;;-4.22;100.00;99653.53;1723568;82;21014;-65
2021/12/30 03:06:26;;;;;;;56.85;30.23;;;;;;;-4.21;100.00;99658.65;1724276;82;21051;-64
2021/12/30 03:08:53;;;;;;;53.40;27.93;;;;;;;-4.18;100.00;99661.47;1753024;82;21461;-65
2021/12/30 03:11:21;;;;;;;55.92;29.25;;;;;;;-4.16;100.00;99672.74;1774152;80;21075;-66
2021/12/30 03:13:47;;;;;;;58.48;28.80;;;;;;;-4.14;100.00;99672.87;1773112;80;21011;-65
2021/12/30 03:16:19;;;;;;;54.48;29.40;;;;;;;-4.17;100.00;99674.56;1737839;82;21545;-65
2021/12/30 03:18:47;;;;;;;63.08;30.25;;;;;;;-4.15;100.00;99675.73;1751205;82;21003;-65
2021/12/30 03:21:15;;;;;;;59.40;28.90;;;;;;;-4.16;100.00;99681.55;1753144;81;21609;-65
2021/12/30 03:23:41;;;;;;;60.38;30.60;;;;;;;-4.13;100.00;99680.35;1733873;82;20959;-65
2021/12/30 03:26:08;;;;;;;;;;;;;;;-4.13;100.00;99684.34;1727576;82;21047;-65
2021/12/30 03:28:35;;;;;;;60.70;30.05;;;;;;;-4.17;100.00;99690.52;1739273;82;20142;-65
2021/12/30 03:31:01;;;;;;;59.85;29.67;;;;;;;-4.20;100.00;99693.53;1729113;81;21561;-66
2021/12/30 03:33:30;;;;;;;67.30;33.50;;;;;;;-4.21;100.00;99696.36;1723393;83;21143;-65
2021/12/30 03:35:59;;;;;;;58.42;29.23;;;;;;;-4.22;100.00;99697.39;1722969;82;21541;-66
2021/12/30 03:38:29;;;;;;;60.52;30.20;;;;;;;-4.23;100.00;99697.05;1744534;82;21003;-65
2021/12/30 03:40:56;;;;;;;59.23;29.02;;;;;;;-4.23;100.00;99690.41;1722546;83;21035;-65
2021/12/30 03:43:23;;;;;;;61.15;29.70;;;;;;;-4.24;100.00;99693.56;1723276;83;21098;-66
2021/12/30 03:45:50;;;;;;;57.78;28.75;;;;;;;-4.23;100.00;99691.23;1725479;82;21581;-65
2021/12/30 03:48:16;;;;;;;55.43;26.37;;;;;;;-4.24;100.00;99693.56;1728329;82;21055;-65
2021/12/30 03:50:44;;;;;;;42.45;21.82;;;;;;;-4.23;100.00;99695.23;1753492;81;21074;-65
2021/12/30 03:53:14;;;;;;;40.75;19.60;;;;;;;-4.25;100.00;99705.19;1753783;82;21070;-65
2021/12/30 03:55:41;;;;;;;35.35;18.57;;;;;;;-4.33;100.00;99707.09;1753440;82;21019;-65
2021/12/30 03:58:07;;;;;;;36.63;19.37;;;;;;;-4.39;100.00;99720.58;1736030;82;21023;-65
2021/12/30 04:00:34;;;;;;;40.17;20.90;;;;;;;-4.44;100.00;99710.16;1724644;82;21557;-65
2021/12/30 04:03:03;;;;;;;41.68;20.43;;;;;;;-4.48;100.00;99710.19;1723386;83;21553;-65
2021/12/30 04:05:29;;;;;;;36.15;18.75;;;;;;;-4.52;100.00;99713.20;1723554;83;21019;-65
2021/12/30 04:07:55;;;;;;;38.95;17.90;;;;;;;-4.56;100.00;99716.38;1732858;82;21059;-65
2021/12/30 04:10:23;;;;;;;38.42;17.90;;;;;;;-4.56;100.00;99717.20;1734578;82;21529;-65
2021/12/30 04:12:52;;;;;;;36.90;18.60;;;;;;;-4.57;100.00;99717.40;1723317;83;21553;-65
2021/12/30 04:15:18;;;;;;;36.73;19.40;;;;;;;-4.59;100.00;99722.88;1727935;82;21078;-66
2021/12/30 04:17:46;;;;;;;36.13;17.20;;;;;;;-4.58;100.00;99723.20;1748248;82;21082;-65
2021/12/30 04:20:14;;;;;;;33.70;16.40;;;;;;;-4.52;100.00;99722.50;1738504;82;21576;-65
2021/12/30 04:22:41;;;;;;;35.63;16.77;;;;;;;-4.53;100.00;99725.31;1743345;82;21043;-65
2021/12/30 04:25:10;;;;;;;36.45;18.02;;;;;;;-4.54;100.00;99725.02;1751985;82;21006;-65
2021/12/30 04:27:37;;;;;;;35.00;17.35;;;;;;;-4.59;100.00;99736.16;1732223;82;21082;-66
2021/12/30 04:30:06;;;;;;;32.15;16.73;;;;;;;-4.58;100.00;99725.87;1728961;82;21047;-65
2021/12/30 04:32:33;;;;;;;30.32;16.05;;;;;;;-4.55;100.00;99732.16;1752455;82;21113;-65
2021/12/30 04:34:59;;;;;;;34.80;17.42;;;;;;;-4.55;100.00;99725.52;1750653;82;20944;-65
2021/12/30 04:37:26;;;;;;;33.55;17.57;;;;;;;-4.54;100.00;99732.98;1753387;82;21149;-66
2021/12/30 04:39:52;;;;;;;29.85;16.10;;;;;;;-4.56;100.00;99742.94;1752726;82;21002;-65
2021/12/30 04:42:19;;;;;;;31.68;16.73;;;;;;;-4.56;100.00;99745.59;1728257;82;21011;-65
2021/12/30 04:44:48;;;;;;;31.68;16.48;;;;;;;-4.55;100.00;99750.75;1735655;82;21062;-65
2021/12/30 04:47:15;;;;;;;32.63;17.57;;;;;;;-4.57;100.00;99748.75;1723446;83;21075;-65
2021/12/30 04:49:42;;;;;;;33.98;17.17;;;;;;;-4.58;100.00;99748.45;1727106;82;21553;-65
2021/12/30 04:52:08;;;;;;;33.25;17.32;;;;;;;-4.58;100.00;99744.95;1741285;81;21039;-64
2021/12/30 04:58:00;;;;;;;33.90;16.12;;;;;;;-4.55;100.00;99748.09;1692327;84;21500;-65
2021/12/30 05:00:26;;;;;;;32.67;16.45;;;;;;;-4.49;100.00;99755.85;1706280;84;21091;-65
2021/12/30 05:05:25;;;;;;;34.40;16.73;;;;;;;-4.38;100.00;99756.78;1703974;84;21727;-66
2021/12/30 05:07:53;;;;;;;34.05;17.70;;;;;;;-4.35;100.00;99751.61;1702792;84;21066;-65
2021/12/30 05:10:21;;;;;;;32.00;16.80;;;;;;;-4.30;100.00;99758.07;1703411;83;21053;-65
2021/12/30 05:12:49;;;;;;;30.72;16.37;;;;;;;-4.27;100.00;99759.54;1704243;84;21049;-65
2021/12/30 05:15:15;;;;;;;34.48;20.25;;;;;;;-4.23;100.00;99763.50;1704116;84;21085;-64
2021/12/30 05:17:43;;;;;;;36.95;17.55;;;;;;;-4.22;100.00;99760.69;1703496;84;21076;-65
2021/12/30 05:20:12;;;;;;;34.78;17.27;;;;;;;-4.22;100.00;99761.19;1701989;84;21074;-65
2021/12/30 05:22:40;;;;;;;32.45;17.95;;;;;;;-4.21;100.00;99757.00;1690566;84;21009;-66
2021/12/30 05:25:09;;;;;;;35.52;18.60;;;;;;;-4.20;100.00;99761.82;1704074;84;21024;-65
2021/12/30 05:27:37;;;;;;;34.65;17.48;;;;;;;-4.16;100.00;99765.78;1704272;84;20977;-66
2021/12/30 05:30:05;;;;;;;40.70;18.70;;;;;;;-4.15;100.00;99760.80;1704368;82;21017;-65
2021/12/30 05:32:31;;;;;;;32.88;17.27;;;;;;;-4.13;100.00;99758.28;1704543;84;21484;-66
2021/12/30 05:34:58;;;;;;;35.48;17.75;;;;;;;-4.15;100.00;99764.29;1704657;84;21056;-66
2021/12/30 05:37:24;;;;;;;32.60;17.30;;;;;;;-4.15;100.00;99761.63;1704250;84;21065;-65
2021/12/30 05:39:51;;;;;;;33.92;18.30;;;;;;;-4.16;100.00;99769.77;1704212;84;21487;-66
2021/12/30 05:42:18;;;;;;;36.05;18.15;;;;;;;-4.15;100.00;99768.28;1704183;84;21077;-66
2021/12/30 05:44:45;;;;;;;37.78;17.12;;;;;;;-4.14;100.00;99774.39;1704087;84;21559;-66
2021/12/30 05:47:12;;;;;;;33.35;18.12;;;;;;;-4.11;100.00;99779.39;1704105;84;21045;-66
2021/12/30 05:49:39;;;;;;;38.20;18.82;;;;;;;-4.12;100.00;99775.06;1703961;83;21063;-66
2021/12/30 05:52:05;;;;;;;39.25;19.23;;;;;;;-4.10;100.00;99779.69;1704146;84;21595;-66
2021/12/30 05:54:32;;;;;;;35.28;18.27;;;;;;;-4.11;100.00;99780.19;1704107;84;21064;-66
2021/12/30 05:56:59;;;;;;;38.70;19.02;;;;;;;-4.09;100.00;99781.35;1715327;82;21067;-65
2021/12/30 05:59:25;;;;;;;39.60;19.48;;;;;;;-4.08;100.00;99789.66;1725578;83;20989;-65
2021/12/30 06:01:52;;;;;;;;;;;;;;;-4.09;100.00;99794.15;1728560;83;21578;-67
2021/12/30 06:04:18;;;;;;;38.00;17.90;;;;;;;-4.11;100.00;99798.00;1728188;83;20167;-66
2021/12/30 06:06:46;;;;;;;33.10;16.52;;;;;;;-4.18;100.00;99809.01;1704360;84;21086;-66
2021/12/30 06:09:12;;;;;;;28.23;14.33;;;;;;;-4.19;100.00;99806.84;1726429;83;21028;-66
2021/12/30 06:11:39;;;;;;;20.62;12.07;;;;;;;-4.23;100.00;99820.16;1677447;84;21511;-66
2021/12/30 06:14:05;;;;;;;25.32;11.70;;;;;;;-4.25;100.00;99818.69;1704711;84;21545;-66
2021/12/30 06:16:33;;;;;;;23.92;11.75;;;;;;;-4.33;100.00;99824.87;1687583;84;21066;-66
2021/12/30 06:18:59;;;;;;;20.82;10.98;;;;;;;-4.36;100.00;99827.88;1692161;84;21020;-66
2021/12/30 06:21:26;;;;;;;20.50;10.70;;;;;;;-4.34;100.00;99833.84;1696542;84;21078;-66
2021/12/30 06:23:52;;;;;;;;;;;;;;;-4.33;100.00;99830.69;1705951;84;20994;-66
2021/12/30 06:26:19;;;;;;;20.25;10.53;;;;;;;-4.32;100.00;99831.82;1706161;84;20138;-66
2021/12/30 06:28:46;;;;;;;23.27;10.88;;;;;;;-4.29;100.00;99831.99;1709278;84;21054;-66
2021/12/30 06:31:12;;;;;;;26.02;11.35;;;;;;;-4.27;100.00;99834.80;1677528;85;21589;-65
2021/12/30 06:33:39;;;;;;;21.87;10.63;;;;;;;-4.25;100.00;99839.95;1711268;83;21047;-66
2021/12/30 06:36:06;;;;;;;21.52;11.60;;;;;;;-4.24;100.00;99839.76;1674384;85;21046;-66
2021/12/30 06:38:33;;;;;;;24.07;11.57;;;;;;;-4.22;100.00;99839.10;1723314;83;20992;-66
2021/12/30 06:41:00;;;;;;;22.45;11.78;;;;;;;-4.23;100.00;99844.08;1724706;83;21982;-66
2021/12/30 06:43:26;;;;;;;22.67;11.45;;;;;;;-4.24;100.00;99848.23;1724939;83;21161;-66
2021/12/30 06:45:52;;;;;;;20.35;11.57;;;;;;;-4.24;100.00;99840.25;1723156;83;21056;-65
2021/12/30 06:48:19;;;;;;;23.27;11.50;;;;;;;-4.22;100.00;99840.43;1726555;83;21071;-66
2021/12/30 06:50:52;;;;;;;20.35;11.40;;;;;;;-4.21;100.00;99838.57;1725974;83;21041;-66
2021/12/30 06:53:16;;;;;;;21.82;11.73;;;;;;;-4.18;100.00;99851.02;1724783;83;21382;-67
2021/12/30 06:55:45;;;;;;;24.40;12.55;;;;;;;-4.18;100.00;99839.58;1721738;83;21071;-66
2021/12/30 06:58:11;;;;;;;23.42;12.80;;;;;;;-4.17;100.00;99844.70;1673102;84;21079;-67
2021/12/30 07:00:38;;;;;;;24.18;12.37;;;;;;;-4.14;100.00;99840.86;1725311;83;21579;-67
2021/12/30 07:03:05;;;;;;;;;;;;;;;-4.13;100.00;99843.36;1727469;83;20987;-66
2021/12/30 07:05:33;;;;;;;21.10;12.00;;;;;;;-4.11;100.00;99845.85;1716227;83;20117;-66
2021/12/30 07:08:00;;;;;;;20.95;11.38;;;;;;;-4.12;100.00;99844.19;1725350;83;21048;-66
2021/12/30 07:10:27;;;;;;;;;;;;;;;-4.12;100.00;99846.34;1727936;81;21545;-67
2021/12/30 07:12:55;;;;;;;22.87;11.08;;;;;;;-4.14;100.00;99851.49;1717469;83;20113;-67
2021/12/30 07:15:22;;;;;;;20.75;10.40;;;;;;;-4.20;100.00;99850.38;1725176;83;21734;-67
2021/12/30 07:17:48;;;;;;;19.75;10.68;;;;;;;-4.21;100.00;99858.51;1726178;83;21105;-67
2021/12/30 07:20:15;;;;;;;22.45;12.07;;;;;;;-4.21;100.00;99848.70;1726013;83;21696;-66
2021/12/30 07:22:42;;;;;;;22.77;11.43;;;;;;;-4.17;100.00;99847.86;1726661;83;21579;-67
2021/12/30 07:25:10;;;;;;;21.17;11.15;;;;;;;-4.14;100.00;99846.17;1733150;83;21054;-67
2021/12/30 07:27:37;;;;;;;18.95;10.32;;;;;;;-4.12;100.00;99840.20;1733173;83;21109;-66
2021/12/30 07:30:04;;;;;;;20.85;10.98;;;;;;;-4.13;100.00;99848.67;1733226;83;21010;-68
2021/12/30 07:32:31;;;;;;;20.52;10.68;;;;;;;-4.14;100.00;99847.00;1733270;83;21603;-66
2021/12/30 07:34:57;;;;;;;21.73;12.30;;;;;;;-4.16;100.00;99846.37;1728065;83;21054;-67
2021/12/30 07:37:24;;;;;;;19.92;11.60;;;;;;;-4.16;100.00;99846.86;1728184;83;21546;-67
2021/12/30 07:39:51;;;;;;;20.32;11.63;;;;;;;-4.16;100.00;99849.03;1733390;83;20990;-67
2021/12/30 07:42:17;;;;;;;21.55;11.28;;;;;;;-4.16;100.00;99853.02;1733091;83;21101;-67
2021/12/30 07:44:43;;;;;;;20.80;12.58;;;;;;;-4.17;100.00;99865.14;1733861;83;21018;-67
2021/12/30 07:47:10;;;;;;;23.80;13.28;;;;;;;-4.21;100.00;99868.64;1733125;83;21090;-67
2021/12/30 07:49:36;;;;;;;;;;;;;;;-4.20;100.00;99860.17;1727907;83;21074;-67
2021/12/30 07:52:06;;;;;;;27.82;12.50;;;;;;;-4.21;100.00;99863.33;1725416;83;20105;-67
2021/12/30 07:54:34;;;;;;;27.32;13.68;;;;;;;-4.24;100.00;99862.35;1725462;83;21039;-67
2021/12/30 07:57:01;;;;;;;25.32;14.15;;;;;;;-4.25;100.00;99865.20;1729030;82;21464;-67
2021/12/30 07:59:27;;;;;;;25.70;13.75;;;;;;;-4.21;100.00;99871.30;1733605;83;21082;-67
2021/12/30 08:01:53;;;;;;;20.62;11.57;;;;;;;-4.19;100.00;99872.47;1733250;83;21658;-67
2021/12/30 08:04:20;;;;;;;;;;;;;;;-4.16;100.00;99871.63;1735855;83;21023;-67
2021/12/30 08:06:46;;;;;;;22.77;12.15;;;;;;;-4.15;100.00;99876.45;1733147;83;20128;-67
2021/12/30 08:09:13;;;;;;;;;;;;;;;-4.16;100.00;99880.09;1736071;83;21110;-67
2021/12/30 08:11:41;;;;;;;;;;;;;;;-4.18;100.00;99880.78;1735899;83;20116;-67
2021/12/30 08:14:07;;;;;;;27.75;13.68;;;;;;;-4.23;100.00;99872.48;1733526;83;20136;-67
2021/12/30 08:16:33;;;;;;;;;;;;;;;-4.23;100.00;99871.16;1736106;83;21066;-67
2021/12/30 08:19:00;;;;;;;27.05;13.78;;;;;;;-4.21;100.00;99867.31;1733279;83;20108;-68
2021/12/30 08:21:27;;;;;;;23.05;13.38;;;;;;;-4.22;100.00;99868.34;1733194;83;21102;-67
2021/12/30 08:23:54;;;;;;;33.25;19.12;;;;;;;-4.21;100.00;99859.34;1733514;83;21042;-67
2021/12/30 08:26:21;;;;;;;24.85;15.38;;;;;;;-4.19;100.00;99862.67;1733285;83;21126;-67
2021/12/30 08:28:47;;;;;;;22.40;13.45;;;;;;;-4.20;100.00;99863.66;1733544;83;21908;-67
2021/12/30 08:31:14;;;;;;;;;;;;;;;-4.17;100.00;99867.80;1733986;83;21023;-67
2021/12/30 08:33:40;;;;;;;25.68;12.60;;;;;;;-4.15;100.00;99872.45;1731609;83;20458;-68
2021/12/30 08:36:08;;;;;;;21.95;11.95;;;;;;;-4.13;100.00;99865.95;1732763;83;21094;-67
2021/12/30 08:38:34;;;;;;;20.50;11.88;;;;;;;-4.15;100.00;99867.97;1733122;81;21121;-67
2021/12/30 08:41:01;;;;;;;22.52;12.73;;;;;;;-4.16;100.00;99871.63;1733241;83;21050;-68
2021/12/30 08:43:27;;;;;;;24.55;13.50;;;;;;;-4.18;100.00;99874.94;1733425;83;21097;-67
2021/12/30 08:45:54;;;;;;;20.35;11.57;;;;;;;-4.18;100.00;99876.27;1733591;83;21077;-67
2021/12/30 08:48:20;;;;;;;20.15;11.78;;;;;;;-4.14;100.00;99868.77;1732727;83;21050;-67
2021/12/30 08:50:47;;;;;;;22.45;12.63;;;;;;;-4.08;100.00;99862.28;1731769;83;21125;-67
2021/12/30 08:53:14;;;;;;;23.00;13.53;;;;;;;-4.04;100.00;99870.73;1731054;81;21576;-67
2021/12/30 08:55:41;;;;;;;;;;;;;;;-3.99;100.00;99872.35;1732196;83;21079;-68
2021/12/30 08:58:07;;;;;;;23.62;14.43;;;;;;;-3.93;100.00;99865.00;1732153;81;20458;-68
2021/12/30 09:00:38;;;;;;;;;;;;;;;-3.89;100.00;99868.96;1726697;83;21094;-68
2021/12/30 09:03:05;;;;;;;22.17;13.00;;;;;;;-3.89;100.00;99868.12;1716038;83;20137;-69
2021/12/30 09:05:33;;;;;;;20.85;12.93;;;;;;;-3.85;100.00;99879.58;1717894;83;21618;-68
2021/12/30 09:08:00;;;;;;;26.17;14.70;;;;;;;-3.82;100.00;99873.91;1714921;83;21065;-68
2021/12/30 09:10:27;;;;;;;23.67;14.45;;;;;;;-3.84;100.00;99871.94;1727040;83;21114;-68
2021/12/30 09:12:55;;;;;;;26.35;14.70;;;;;;;-3.83;100.00;99870.94;1725561;83;21540;-68
2021/12/30 09:15:24;;;;;;;24.27;14.30;;;;;;;-3.82;100.00;99861.10;1728356;83;21034;-68
2021/12/30 09:17:51;;;;;;;24.10;13.30;;;;;;;-3.81;100.00;99867.59;1727279;83;21046;-69
2021/12/30 09:20:18;;;;;;;19.42;12.13;;;;;;;-3.79;100.00;99862.11;1703511;83;21878;-68
2021/12/30 09:22:45;;;;;;;;;;;;;;;-3.76;100.00;99869.73;1725842;83;21103;-69
2021/12/30 09:25:11;;;;;;;22.50;11.65;;;;;;;-3.70;100.00;99867.19;1693642;83;20139;-68
2021/12/30 09:27:40;;;;;;;19.62;12.43;;;;;;;-3.70;100.00;99864.52;1723294;83;21043;-68
2021/12/30 09:30:11;;;;;;;22.87;12.33;;;;;;;-3.71;100.00;99853.55;1727339;83;21047;-68
2021/12/30 09:32:38;;;;;;;19.87;12.18;;;;;;;-3.67;100.00;99852.69;1719642;83;21006;-68
2021/12/30 09:35:06;;;;;;;22.48;13.05;;;;;;;-3.65;100.00;99856.02;1726348;83;21062;-68
2021/12/30 09:37:34;;;;;;;20.35;12.37;;;;;;;-3.68;100.00;99853.19;1729839;83;21014;-68
2021/12/30 09:40:01;;;;;;;23.60;14.18;;;;;;;-3.67;100.00;99843.38;1729889;83;21010;-69
2021/12/30 09:42:28;;;;;;;17.37;10.93;;;;;;;-3.58;100.00;99849.78;1727018;83;21139;-68
2021/12/30 09:44:54;;;;;;;20.12;12.30;;;;;;;-3.53;100.00;99846.09;1725998;83;21041;-68
2021/12/30 09:47:21;;;;;;;20.62;13.85;;;;;;;-3.52;100.00;99845.59;1728020;83;21038;-68
2021/12/30 09:49:50;;;;;;;20.97;13.13;;;;;;;-3.59;100.00;99842.83;1725543;83;21028;-68
2021/12/30 09:52:17;;;;;;;22.45;13.70;;;;;;;-3.61;100.00;99842.66;1725120;83;21087;-68
2021/12/30 09:54:45;;;;;;;21.97;13.20;;;;;;;-3.61;100.00;99839.50;1724883;83;21553;-68
2021/12/30 09:57:11;;;;;;;;;;;;;;;-3.55;100.00;99830.83;1727257;83;21087;-68
2021/12/30 09:59:38;;;;;;;22.22;12.30;;;;;;;-3.50;100.00;99844.90;1725532;83;20124;-68
2021/12/30 10:02:04;;;;;;;21.97;13.10;;;;;;;-3.45;100.00;99839.05;1725459;83;21067;-68
2021/12/30 10:04:34;;;;;;;22.20;14.03;;;;;;;-3.39;100.00;99844.98;1721967;83;21648;-68
2021/12/30 10:07:01;;;;;;;22.48;13.85;;;;;;;-3.39;100.00;99840.48;1725750;83;21141;-68
2021/12/30 10:09:46;;;;;;;24.60;13.85;;;;;;;-3.38;100.00;99834.66;1725997;83;21517;-68
2021/12/30 10:12:08;;;;;;;25.60;14.20;;;;;;;-3.34;100.00;99828.81;1724902;83;21102;-69
2021/12/30 10:14:36;;;;;;;;;;;;;;;-3.33;100.00;99821.13;1728163;83;21026;-69
2021/12/30 10:17:25;;;;;;;22.27;13.72;;;;;;;-3.26;100.00;99823.92;1720840;83;20158;-68
2021/12/30 10:19:53;;;;;;;;;;;;;;;-3.26;100.00;99826.05;1725414;83;21047;-67
2021/12/30 10:22:23;;;;;;;20.68;12.45;;;;;;;-3.28;100.00;99828.08;1725735;83;20101;-67
2021/12/30 10:24:49;;;;;;;23.40;14.18;;;;;;;-3.29;100.00;99826.91;1725377;83;21028;-66
2021/12/30 10:27:25;;;;;;;26.00;14.78;;;;;;;-3.35;100.00;99829.80;1725526;83;21102;-67
2021/12/30 10:29:52;;;;;;;24.82;15.23;;;;;;;-3.34;100.00;99823.48;1725372;82;21046;-68
2021/12/30 10:32:21;;;;;;;;;;;;;;;-3.32;100.00;99817.46;1726371;83;21121;-68
2021/12/30 10:35:13;;;;;;;25.02;13.30;;;;;;;-3.33;100.00;99817.13;1714645;83;20528;-68
2021/12/30 10:37:45;;;;;;;24.32;12.70;;;;;;;-3.39;100.00;99811.20;1723073;83;21568;-70
2021/12/30 10:40:27;;;;;;;22.93;13.00;;;;;;;-3.47;100.00;99805.14;1724542;83;21517;-68
2021/12/30 10:43:28;;;;;;;22.37;13.28;;;;;;;-3.49;100.00;99797.83;1724615;83;20987;-69
2021/12/30 10:46:21;;;;;;;21.02;12.98;;;;;;;-3.53;100.00;99784.05;1725473;83;21057;-67
2021/12/30 10:49:05;;;;;;;21.12;12.03;;;;;;;-3.52;100.00;99787.87;1725613;83;21063;-67
2021/12/30 10:51:38;;;;;;;19.05;11.70;;;;;;;-3.56;100.00;99784.42;1725526;83;21541;-67
2021/12/30 10:54:23;;;;;;;20.27;11.80;;;;;;;-3.56;100.00;99793.23;1725594;83;21030;-68
2021/12/30 10:57:09;;;;;;;21.55;12.20;;;;;;;-3.57;100.00;99788.08;1717242;83;21157;-69
2021/12/30 10:59:44;;;;;;;18.17;10.93;;;;;;;-3.58;100.00;99784.59;1733102;82;21030;-68
2021/12/30 11:02:23;;;;;;;20.57;11.50;;;;;;;-3.56;100.00;99781.26;1732769;83;21085;-68
2021/12/30 11:04:56;;;;;;;19.57;11.88;;;;;;;-3.51;100.00;99782.06;1733058;83;21584;-68
2021/12/30 11:07:47;;;;;;;24.00;12.40;;;;;;;-3.51;100.00;99768.75;1733191;83;21181;-69
2021/12/30 11:10:17;;;;;;;18.57;11.40;;;;;;;-3.45;100.00;99765.86;1733691;83;21050;-68
2021/12/30 11:12:46;;;;;;;18.52;11.33;;;;;;;-3.39;100.00;99768.62;1733042;83;21065;-68
2021/12/30 11:15:24;;;;;;;20.52;11.10;;;;;;;-3.34;100.00;99768.08;1732382;83;21010;-68
2021/12/30 11:18:11;;;;;;;18.10;11.03;;;;;;;-3.35;100.00;99768.58;1733478;83;21095;-67
2021/12/30 11:20:42;;;;;;;19.52;11.68;;;;;;;-3.34;100.00;99768.08;1732658;83;21165;-67
2021/12/30 11:23:10;;;;;;;17.30;11.03;;;;;;;-3.41;100.00;99769.81;1737231;81;21134;-67
2021/12/30 11:25:37;;;;;;;22.07;12.18;;;;;;;-3.45;100.00;99773.84;1731812;83;21456;-67
2021/12/30 11:28:04;;;;;;;17.37;11.10;;;;;;;-3.46;100.00;99775.67;1720674;83;21050;-66
2021/12/30 11:30:30;;;;;;;20.72;12.13;;;;;;;-3.45;100.00;99785.82;1732708;83;21077;-66